PWSweather.com
Personal Weather Stations
Station Observations
EDDERTON
Rossshire, EddertonGB IV191LA

RossshireEddertonGB IV191LA

Lat: 57.838, Lon: -4.176

Elevation: 60

Station Type: Davis Vantage PRO2 Wireless With Solar Sensor

http://www.ardmore-lodge.com

Latest ConditionsUpdated 1:30:01 PM GMT Saturday, Dec 3, 2016
Currently Today's Max Today's Min Today's Average
Temperature 41.7°F5.4°C 42.1°F5.6°C 33.0°F0.6°C 39.1°F3.9°C
Dew Point 39.8°F4.3°C 40.8°F4.9°C 31.7°F-0.2°C 37.6°F3.1°C
Winds Calm Calm 2.3 mph WSW3.7 kmh WSW - 0.3 mph 0.5 kmh
Wind Gusts 2.3 mph3.7 kmh 3.5 mph5.6 kmh - -
Humidity 93% 96% 93% 94%
Pressure 30.27 in1025.1 mb 30.31 in1026.4 mb 30.27 in1025.1 mb -
Hour Temp Dew Point Humidity Winds Wind Gusts Pressure Precip Precip Rate Daily Precip Total
01:30 PM 41.7°F5.4°C 39.8°F4.3°C 93% Calm Calm 2.3 mph3.7 kmh 30.27 in1025.1 mb - 0.00 in0.0 mm 0.00 in0.0 mm
01:15 PM 41.3°F5.2°C 39.4°F4.1°C 93% Calm Calm -- 30.28 in1025.4 mb - 0.00 in0.0 mm 0.00 in0.0 mm
01:00 PM 41.2°F5.1°C 39.3°F4.1°C 93% Calm Calm -- 30.28 in1025.4 mb - 0.00 in0.0 mm 0.00 in0.0 mm
12:45 PM 41.3°F5.2°C 39.4°F4.1°C 93% Calm Calm -- 30.28 in1025.4 mb - 0.00 in0.0 mm 0.00 in0.0 mm
12:30 PM 42.1°F5.6°C 40.8°F4.9°C 95% Calm Calm -- 30.28 in1025.4 mb - 0.00 in0.0 mm 0.00 in0.0 mm
12:15 PM 40.3°F4.6°C 39.0°F3.9°C 95% 2.3 mph WSW3.7 kmh WSW 3.5 mph5.6 kmh 30.28 in1025.4 mb - 0.00 in0.0 mm 0.00 in0.0 mm
12:00 PM 39.2°F4.0°C 37.6°F3.1°C 94% 1.2 mph WSW1.9 kmh WSW 2.3 mph3.7 kmh 30.29 in1025.7 mb - 0.00 in0.0 mm 0.00 in0.0 mm
11:45 AM 39.9°F4.4°C 38.6°F3.7°C 95% 1.2 mph WSW1.9 kmh WSW 3.5 mph5.6 kmh 30.29 in1025.7 mb - 0.00 in0.0 mm 0.00 in0.0 mm
11:30 AM 39.1°F3.9°C 37.8°F3.2°C 95% Calm Calm -- 30.29 in1025.7 mb - 0.00 in0.0 mm 0.00 in0.0 mm
11:15 AM 38.0°F3.3°C 37.0°F2.8°C 96% Calm Calm -- 30.29 in1025.7 mb - 0.00 in0.0 mm 0.00 in0.0 mm
11:00 AM 37.0°F2.8°C 35.7°F2.1°C 95% 1.2 mph WSW1.9 kmh WSW 1.2 mph1.9 kmh 30.30 in1026.1 mb - 0.00 in0.0 mm 0.00 in0.0 mm
10:45 AM 37.4°F3.0°C 35.8°F2.1°C 94% Calm Calm -- 30.30 in1026.1 mb - 0.00 in0.0 mm 0.00 in0.0 mm
10:30 AM 37.0°F2.8°C 36.0°F2.2°C 96% Calm Calm -- 30.30 in1026.1 mb - 0.00 in0.0 mm 0.00 in0.0 mm
10:15 AM 35.5°F1.9°C 34.5°F1.4°C 96% Calm Calm -- 30.30 in1026.1 mb - 0.00 in0.0 mm 0.00 in0.0 mm
10:00 AM 33.8°F1.0°C 32.5°F0.3°C 95% Calm Calm -- 30.30 in1026.1 mb - 0.00 in0.0 mm 0.00 in0.0 mm
09:45 AM 33.0°F0.6°C 31.7°F-0.2°C 95% Calm Calm -- 30.30 in1026.1 mb - 0.00 in0.0 mm 0.00 in0.0 mm
09:30 AM 33.5°F0.8°C 32.2°F0.1°C 95% Calm Calm -- 30.30 in1026.1 mb - 0.00 in0.0 mm 0.00 in0.0 mm
09:15 AM 34.4°F1.3°C 33.1°F0.6°C 95% Calm Calm -- 30.29 in1025.7 mb - 0.00 in0.0 mm 0.00 in0.0 mm
09:00 AM 34.9°F1.6°C 33.6°F0.9°C 95% Calm Calm -- 30.29 in1025.7 mb - 0.00 in0.0 mm 0.00 in0.0 mm
08:45 AM 35.8°F2.1°C 34.3°F1.3°C 94% 1.2 mph WSW1.9 kmh WSW 1.2 mph1.9 kmh 30.29 in1025.7 mb - 0.00 in0.0 mm 0.00 in0.0 mm
08:30 AM 36.7°F2.6°C 35.4°F1.9°C 95% Calm Calm -- 30.29 in1025.7 mb - 0.00 in0.0 mm 0.00 in0.0 mm
08:15 AM 37.5°F3.1°C 36.2°F2.3°C 95% Calm Calm -- 30.28 in1025.4 mb - 0.00 in0.0 mm 0.00 in0.0 mm
08:00 AM 37.9°F3.3°C 36.6°F2.6°C 95% Calm Calm -- 30.28 in1025.4 mb - 0.00 in0.0 mm 0.00 in0.0 mm
07:45 AM 38.4°F3.6°C 37.1°F2.8°C 95% Calm Calm -- 30.28 in1025.4 mb - 0.00 in0.0 mm 0.00 in0.0 mm
07:30 AM 38.7°F3.7°C 37.4°F3.0°C 95% Calm Calm -- 30.28 in1025.4 mb - 0.00 in0.0 mm 0.00 in0.0 mm
07:15 AM 39.0°F3.9°C 37.7°F3.2°C 95% Calm Calm -- 30.28 in1025.4 mb - 0.00 in0.0 mm 0.00 in0.0 mm
07:00 AM 39.3°F4.1°C 38.0°F3.3°C 95% Calm Calm -- 30.27 in1025.1 mb - 0.00 in0.0 mm 0.00 in0.0 mm
06:45 AM 39.5°F4.2°C 38.2°F3.4°C 95% Calm Calm -- 30.28 in1025.4 mb - 0.00 in0.0 mm 0.00 in0.0 mm
06:30 AM 39.2°F4.0°C 37.9°F3.3°C 95% 1.2 mph WSW1.9 kmh WSW 2.3 mph3.7 kmh 30.27 in1025.1 mb - 0.00 in0.0 mm 0.00 in0.0 mm
06:15 AM 38.9°F3.8°C 37.6°F3.1°C 95% Calm Calm -- 30.28 in1025.4 mb - 0.00 in0.0 mm 0.00 in0.0 mm
06:00 AM 38.8°F3.8°C 37.5°F3.1°C 95% 1.2 mph WSW1.9 kmh WSW 2.3 mph3.7 kmh 30.28 in1025.4 mb - 0.00 in0.0 mm 0.00 in0.0 mm
05:45 AM 39.4°F4.1°C 38.1°F3.4°C 95% Calm Calm -- 30.28 in1025.4 mb - 0.00 in0.0 mm 0.00 in0.0 mm
05:30 AM 39.8°F4.3°C 38.4°F3.6°C 95% Calm Calm -- 30.28 in1025.4 mb - 0.00 in0.0 mm 0.00 in0.0 mm
05:15 AM 40.1°F4.5°C 38.8°F3.8°C 95% Calm Calm -- 30.28 in1025.4 mb - 0.00 in0.0 mm 0.00 in0.0 mm
05:00 AM 40.1°F4.5°C 38.8°F3.8°C 95% Calm Calm -- 30.28 in1025.4 mb - 0.00 in0.0 mm 0.00 in0.0 mm
04:45 AM 39.9°F4.4°C 38.6°F3.7°C 95% 1.2 mph WSW1.9 kmh WSW 2.3 mph3.7 kmh 30.28 in1025.4 mb - 0.00 in0.0 mm 0.00 in0.0 mm
04:30 AM 39.9°F4.4°C 38.6°F3.7°C 95% Calm Calm -- 30.28 in1025.4 mb - 0.00 in0.0 mm 0.00 in0.0 mm
04:15 AM 40.0°F4.4°C 38.4°F3.6°C 94% 1.2 mph WSW1.9 kmh WSW 2.3 mph3.7 kmh 30.28 in1025.4 mb - 0.00 in0.0 mm 0.00 in0.0 mm
04:00 AM 40.2°F4.6°C 38.9°F3.8°C 95% Calm Calm -- 30.28 in1025.4 mb - 0.00 in0.0 mm 0.00 in0.0 mm
03:45 AM 40.1°F4.5°C 38.8°F3.8°C 95% Calm Calm -- 30.28 in1025.4 mb - 0.00 in0.0 mm 0.00 in0.0 mm
03:30 AM 40.1°F4.5°C 38.5°F3.6°C 94% Calm Calm 2.3 mph3.7 kmh 30.29 in1025.7 mb - 0.00 in0.0 mm 0.00 in0.0 mm
03:15 AM 40.3°F4.6°C 39.0°F3.9°C 95% Calm Calm -- 30.29 in1025.7 mb - 0.00 in0.0 mm 0.00 in0.0 mm
03:00 AM 40.2°F4.6°C 38.6°F3.7°C 94% 1.2 mph WSW1.9 kmh WSW 2.3 mph3.7 kmh 30.29 in1025.7 mb - 0.00 in0.0 mm 0.00 in0.0 mm
02:45 AM 40.0°F4.4°C 38.4°F3.6°C 94% 1.2 mph WSW1.9 kmh WSW 2.3 mph3.7 kmh 30.30 in1026.1 mb - 0.00 in0.0 mm 0.00 in0.0 mm
02:30 AM 40.2°F4.6°C 38.6°F3.7°C 94% Calm Calm 2.3 mph3.7 kmh 30.30 in1026.1 mb - 0.00 in0.0 mm 0.00 in0.0 mm
02:15 AM 40.6°F4.8°C 39.0°F3.9°C 94% Calm Calm -- 30.30 in1026.1 mb - 0.00 in0.0 mm 0.00 in0.0 mm
02:00 AM 40.7°F4.8°C 39.1°F3.9°C 94% 1.2 mph WSW1.9 kmh WSW 2.3 mph3.7 kmh 30.30 in1026.1 mb - 0.00 in0.0 mm 0.00 in0.0 mm
01:45 AM 40.8°F4.9°C 39.2°F4.0°C 94% Calm Calm -- 30.30 in1026.1 mb - 0.00 in0.0 mm 0.00 in0.0 mm
01:30 AM 40.8°F4.9°C 38.9°F3.8°C 93% 2.3 mph WSW3.7 kmh WSW 2.3 mph3.7 kmh 30.31 in1026.4 mb - 0.00 in0.0 mm 0.00 in0.0 mm
01:15 AM 40.8°F4.9°C 39.2°F4.0°C 94% Calm Calm -- 30.31 in1026.4 mb - 0.00 in0.0 mm 0.00 in0.0 mm
01:00 AM 40.8°F4.9°C 38.9°F3.8°C 93% Calm Calm -- 30.30 in1026.1 mb - 0.00 in0.0 mm 0.00 in0.0 mm
12:45 AM 40.8°F4.9°C 38.9°F3.8°C 93% Calm Calm -- 30.30 in1026.1 mb - 0.00 in0.0 mm 0.00 in0.0 mm
12:30 AM 40.8°F4.9°C 38.9°F3.8°C 93% Calm Calm -- 30.31 in1026.4 mb - 0.00 in0.0 mm 0.00 in0.0 mm
12:15 AM 41.0°F5.0°C 39.1°F3.9°C 93% Calm Calm -- 30.31 in1026.4 mb - 0.00 in0.0 mm 0.00 in0.0 mm
12:00 AM 40.8°F4.9°C 38.9°F3.8°C 93% Calm Calm -- 30.31 in1026.4 mb - 0.00 in0.0 mm 0.00 in0.0 mm